sensor_id;sensor_type;location;lat;lon;timestamp;temperature;humidity
32139;DHT22;18644;48.700;9.210;2022-08-19T00:00:37;24.50;49.60
32139;DHT22;18644;48.700;9.210;2022-08-19T00:03:05;24.50;49.70
32139;DHT22;18644;48.700;9.210;2022-08-19T00:05:33;24.50;49.70
32139;DHT22;18644;48.700;9.210;2022-08-19T00:08:00;24.50;49.80
32139;DHT22;18644;48.700;9.210;2022-08-19T00:10:27;24.50;49.90
32139;DHT22;18644;48.700;9.210;2022-08-19T00:12:54;24.40;50.00
32139;DHT22;18644;48.700;9.210;2022-08-19T00:15:22;24.40;50.10
32139;DHT22;18644;48.700;9.210;2022-08-19T00:17:51;24.40;50.20
32139;DHT22;18644;48.700;9.210;2022-08-19T00:20:20;24.40;50.30
32139;DHT22;18644;48.700;9.210;2022-08-19T00:22:47;24.40;50.30
32139;DHT22;18644;48.700;9.210;2022-08-19T00:25:14;24.30;50.40
32139;DHT22;18644;48.700;9.210;2022-08-19T00:27:41;24.30;50.50
32139;DHT22;18644;48.700;9.210;2022-08-19T00:30:09;24.30;50.60
32139;DHT22;18644;48.700;9.210;2022-08-19T00:32:37;24.30;50.60
32139;DHT22;18644;48.700;9.210;2022-08-19T00:35:07;24.30;50.70
32139;DHT22;18644;48.700;9.210;2022-08-19T00:37:35;24.20;50.90
32139;DHT22;18644;48.700;9.210;2022-08-19T00:40:04;24.20;51.00
32139;DHT22;18644;48.700;9.210;2022-08-19T00:42:32;24.10;51.00
32139;DHT22;18644;48.700;9.210;2022-08-19T00:44:59;24.10;51.10
32139;DHT22;18644;48.700;9.210;2022-08-19T00:47:26;24.10;51.10
32139;DHT22;18644;48.700;9.210;2022-08-19T00:49:57;24.10;51.20
32139;DHT22;18644;48.700;9.210;2022-08-19T00:52:29;24.10;51.40
32139;DHT22;18644;48.700;9.210;2022-08-19T00:55:00;24.00;51.50
32139;DHT22;18644;48.700;9.210;2022-08-19T00:57:29;24.00;51.60
32139;DHT22;18644;48.700;9.210;2022-08-19T01:00:14;23.90;51.60
32139;DHT22;18644;48.700;9.210;2022-08-19T01:02:43;23.90;51.60
32139;DHT22;18644;48.700;9.210;2022-08-19T01:05:12;23.90;51.70
32139;DHT22;18644;48.700;9.210;2022-08-19T01:07:42;23.90;51.80
32139;DHT22;18644;48.700;9.210;2022-08-19T01:10:12;23.90;51.90
32139;DHT22;18644;48.700;9.210;2022-08-19T01:12:41;23.90;51.90
32139;DHT22;18644;48.700;9.210;2022-08-19T01:15:10;23.80;52.00
32139;DHT22;18644;48.700;9.210;2022-08-19T01:17:39;23.80;52.10
32139;DHT22;18644;48.700;9.210;2022-08-19T01:20:10;23.80;52.20
32139;DHT22;18644;48.700;9.210;2022-08-19T01:22:43;23.80;52.30
32139;DHT22;18644;48.700;9.210;2022-08-19T01:25:12;23.80;52.40
32139;DHT22;18644;48.700;9.210;2022-08-19T01:27:40;23.80;52.50
32139;DHT22;18644;48.700;9.210;2022-08-19T01:30:11;23.80;52.70
32139;DHT22;18644;48.700;9.210;2022-08-19T01:32:39;23.80;52.90
32139;DHT22;18644;48.700;9.210;2022-08-19T01:35:07;23.70;52.80
32139;DHT22;18644;48.700;9.210;2022-08-19T01:37:44;23.70;52.90
32139;DHT22;18644;48.700;9.210;2022-08-19T01:40:12;23.70;53.10
32139;DHT22;18644;48.700;9.210;2022-08-19T01:42:39;23.70;52.90
32139;DHT22;18644;48.700;9.210;2022-08-19T01:45:07;23.70;52.80
32139;DHT22;18644;48.700;9.210;2022-08-19T01:47:35;23.70;52.90
32139;DHT22;18644;48.700;9.210;2022-08-19T01:50:03;23.60;52.90
32139;DHT22;18644;48.700;9.210;2022-08-19T01:52:31;23.60;53.00
32139;DHT22;18644;48.700;9.210;2022-08-19T01:54:59;23.60;53.00
32139;DHT22;18644;48.700;9.210;2022-08-19T01:57:26;23.60;53.10
32139;DHT22;18644;48.700;9.210;2022-08-19T01:59:53;23.60;53.10
32139;DHT22;18644;48.700;9.210;2022-08-19T02:02:20;23.50;53.10
32139;DHT22;18644;48.700;9.210;2022-08-19T02:04:47;23.50;53.20
32139;DHT22;18644;48.700;9.210;2022-08-19T02:07:14;23.50;53.20
32139;DHT22;18644;48.700;9.210;2022-08-19T02:09:41;23.50;53.10
32139;DHT22;18644;48.700;9.210;2022-08-19T02:12:09;23.50;53.10
32139;DHT22;18644;48.700;9.210;2022-08-19T02:14:36;23.50;53.20
32139;DHT22;18644;48.700;9.210;2022-08-19T02:17:03;23.50;53.20
32139;DHT22;18644;48.700;9.210;2022-08-19T02:19:30;23.50;53.30
32139;DHT22;18644;48.700;9.210;2022-08-19T02:21:58;23.40;53.40
32139;DHT22;18644;48.700;9.210;2022-08-19T02:24:25;23.40;53.40
32139;DHT22;18644;48.700;9.210;2022-08-19T02:26:53;23.40;53.40
32139;DHT22;18644;48.700;9.210;2022-08-19T02:29:21;23.40;53.50
32139;DHT22;18644;48.700;9.210;2022-08-19T02:31:48;23.40;54.20
32139;DHT22;18644;48.700;9.210;2022-08-19T02:34:16;23.30;53.60
32139;DHT22;18644;48.700;9.210;2022-08-19T02:36:43;23.30;53.70
32139;DHT22;18644;48.700;9.210;2022-08-19T02:39:10;23.30;53.80
32139;DHT22;18644;48.700;9.210;2022-08-19T02:41:36;23.30;53.90
32139;DHT22;18644;48.700;9.210;2022-08-19T02:44:03;23.30;53.90
32139;DHT22;18644;48.700;9.210;2022-08-19T02:46:33;23.30;53.90
32139;DHT22;18644;48.700;9.210;2022-08-19T02:49:04;23.30;54.00
32139;DHT22;18644;48.700;9.210;2022-08-19T02:51:36;23.20;54.10
32139;DHT22;18644;48.700;9.210;2022-08-19T02:54:07;23.20;54.20
32139;DHT22;18644;48.700;9.210;2022-08-19T02:56:35;23.10;54.20
32139;DHT22;18644;48.700;9.210;2022-08-19T02:59:03;23.10;54.20
32139;DHT22;18644;48.700;9.210;2022-08-19T03:01:37;23.10;54.20
32139;DHT22;18644;48.700;9.210;2022-08-19T03:04:06;23.10;54.30
32139;DHT22;18644;48.700;9.210;2022-08-19T03:06:36;23.10;54.40
32139;DHT22;18644;48.700;9.210;2022-08-19T03:09:04;23.10;54.50
32139;DHT22;18644;48.700;9.210;2022-08-19T03:11:32;23.10;54.50
32139;DHT22;18644;48.700;9.210;2022-08-19T03:14:01;23.10;54.70
32139;DHT22;18644;48.700;9.210;2022-08-19T03:16:31;23.00;54.50
32139;DHT22;18644;48.700;9.210;2022-08-19T03:19:02;23.00;54.80
32139;DHT22;18644;48.700;9.210;2022-08-19T03:21:31;23.00;54.70
32139;DHT22;18644;48.700;9.210;2022-08-19T03:24:01;23.00;54.80
32139;DHT22;18644;48.700;9.210;2022-08-19T03:26:30;23.00;54.80
32139;DHT22;18644;48.700;9.210;2022-08-19T03:29:02;23.00;54.80
32139;DHT22;18644;48.700;9.210;2022-08-19T03:31:30;23.00;55.00
32139;DHT22;18644;48.700;9.210;2022-08-19T03:33:57;22.90;54.90
32139;DHT22;18644;48.700;9.210;2022-08-19T03:36:26;23.00;55.00
32139;DHT22;18644;48.700;9.210;2022-08-19T03:38:56;23.00;55.00
32139;DHT22;18644;48.700;9.210;2022-08-19T03:41:26;23.00;55.00
32139;DHT22;18644;48.700;9.210;2022-08-19T03:43:54;23.00;55.00
32139;DHT22;18644;48.700;9.210;2022-08-19T03:46:23;23.00;55.00
32139;DHT22;18644;48.700;9.210;2022-08-19T03:48:53;23.00;55.00
32139;DHT22;18644;48.700;9.210;2022-08-19T03:51:23;22.90;55.00
32139;DHT22;18644;48.700;9.210;2022-08-19T03:53:52;22.90;55.00
32139;DHT22;18644;48.700;9.210;2022-08-19T03:56:21;22.90;55.00
32139;DHT22;18644;48.700;9.210;2022-08-19T03:58:51;22.90;55.70
32139;DHT22;18644;48.700;9.210;2022-08-19T04:01:20;22.90;55.00
32139;DHT22;18644;48.700;9.210;2022-08-19T04:03:52;22.90;55.10
32139;DHT22;18644;48.700;9.210;2022-08-19T04:06:21;22.90;55.20
32139;DHT22;18644;48.700;9.210;2022-08-19T04:08:53;22.90;55.20
32139;DHT22;18644;48.700;9.210;2022-08-19T04:11:23;22.90;55.30
32139;DHT22;18644;48.700;9.210;2022-08-19T04:13:52;22.80;55.30
32139;DHT22;18644;48.700;9.210;2022-08-19T04:16:20;22.80;55.30
32139;DHT22;18644;48.700;9.210;2022-08-19T04:18:48;22.80;55.30
32139;DHT22;18644;48.700;9.210;2022-08-19T04:21:16;22.80;55.30
32139;DHT22;18644;48.700;9.210;2022-08-19T04:23:46;22.80;55.40
32139;DHT22;18644;48.700;9.210;2022-08-19T04:26:15;22.80;55.50
32139;DHT22;18644;48.700;9.210;2022-08-19T04:28:44;22.80;55.60
32139;DHT22;18644;48.700;9.210;2022-08-19T04:31:13;22.80;55.60
32139;DHT22;18644;48.700;9.210;2022-08-19T04:33:41;22.70;55.60
32139;DHT22;18644;48.700;9.210;2022-08-19T04:36:14;22.70;55.60
32139;DHT22;18644;48.700;9.210;2022-08-19T04:38:43;22.70;55.70
32139;DHT22;18644;48.700;9.210;2022-08-19T04:41:09;22.70;55.70
32139;DHT22;18644;48.700;9.210;2022-08-19T04:43:56;22.70;55.70
32139;DHT22;18644;48.700;9.210;2022-08-19T04:46:22;22.70;55.70
32139;DHT22;18644;48.700;9.210;2022-08-19T04:48:49;22.70;55.70
32139;DHT22;18644;48.700;9.210;2022-08-19T04:51:16;22.70;55.80
32139;DHT22;18644;48.700;9.210;2022-08-19T04:53:43;22.70;55.90
32139;DHT22;18644;48.700;9.210;2022-08-19T04:56:12;22.60;55.90
32139;DHT22;18644;48.700;9.210;2022-08-19T04:58:41;22.60;56.10
32139;DHT22;18644;48.700;9.210;2022-08-19T05:01:12;22.60;56.00
32139;DHT22;18644;48.700;9.210;2022-08-19T05:03:39;22.60;56.00
32139;DHT22;18644;48.700;9.210;2022-08-19T05:06:07;22.60;56.10
32139;DHT22;18644;48.700;9.210;2022-08-19T05:08:37;22.60;56.20
32139;DHT22;18644;48.700;9.210;2022-08-19T05:11:09;22.60;56.10
32139;DHT22;18644;48.700;9.210;2022-08-19T05:13:38;22.60;56.20
32139;DHT22;18644;48.700;9.210;2022-08-19T05:16:05;22.60;56.10
32139;DHT22;18644;48.700;9.210;2022-08-19T05:18:34;22.60;56.10
32139;DHT22;18644;48.700;9.210;2022-08-19T05:21:20;22.60;56.10
32139;DHT22;18644;48.700;9.210;2022-08-19T05:24:07;22.70;56.20
32139;DHT22;18644;48.700;9.210;2022-08-19T05:26:34;22.70;56.70
32139;DHT22;18644;48.700;9.210;2022-08-19T05:29:02;22.70;56.20
32139;DHT22;18644;48.700;9.210;2022-08-19T05:31:29;22.70;56.10
32139;DHT22;18644;48.700;9.210;2022-08-19T05:33:58;22.80;56.20
32139;DHT22;18644;48.700;9.210;2022-08-19T05:36:25;22.70;56.20
32139;DHT22;18644;48.700;9.210;2022-08-19T05:38:52;22.80;56.20
32139;DHT22;18644;48.700;9.210;2022-08-19T05:41:20;22.80;56.20
32139;DHT22;18644;48.700;9.210;2022-08-19T05:43:54;22.80;56.20
32139;DHT22;18644;48.700;9.210;2022-08-19T05:46:22;22.80;56.20
32139;DHT22;18644;48.700;9.210;2022-08-19T05:48:49;22.80;56.20
32139;DHT22;18644;48.700;9.210;2022-08-19T05:51:17;22.80;56.20
32139;DHT22;18644;48.700;9.210;2022-08-19T05:53:44;22.80;56.30
32139;DHT22;18644;48.700;9.210;2022-08-19T05:56:14;22.80;56.20
32139;DHT22;18644;48.700;9.210;2022-08-19T05:58:43;22.80;56.20
32139;DHT22;18644;48.700;9.210;2022-08-19T06:01:13;22.90;56.20
32139;DHT22;18644;48.700;9.210;2022-08-19T06:03:42;22.80;56.20
32139;DHT22;18644;48.700;9.210;2022-08-19T06:06:13;22.90;56.20
32139;DHT22;18644;48.700;9.210;2022-08-19T06:08:43;22.80;56.80
32139;DHT22;18644;48.700;9.210;2022-08-19T06:11:16;22.80;56.30
32139;DHT22;18644;48.700;9.210;2022-08-19T06:13:47;22.80;56.30
32139;DHT22;18644;48.700;9.210;2022-08-19T06:16:16;22.90;56.40
32139;DHT22;18644;48.700;9.210;2022-08-19T06:18:48;22.80;56.30
32139;DHT22;18644;48.700;9.210;2022-08-19T06:21:18;22.90;56.40
32139;DHT22;18644;48.700;9.210;2022-08-19T06:23:47;22.90;56.50
32139;DHT22;18644;48.700;9.210;2022-08-19T06:26:16;22.90;56.60
32139;DHT22;18644;48.700;9.210;2022-08-19T06:28:44;22.90;56.60
32139;DHT22;18644;48.700;9.210;2022-08-19T06:31:12;22.90;56.60
32139;DHT22;18644;48.700;9.210;2022-08-19T06:33:42;22.90;56.60
32139;DHT22;18644;48.700;9.210;2022-08-19T06:36:17;22.90;56.60
32139;DHT22;18644;48.700;9.210;2022-08-19T06:38:44;22.90;56.90
32139;DHT22;18644;48.700;9.210;2022-08-19T06:41:13;22.90;56.90
32139;DHT22;18644;48.700;9.210;2022-08-19T06:43:40;23.00;56.80
32139;DHT22;18644;48.700;9.210;2022-08-19T06:46:13;23.00;56.90
32139;DHT22;18644;48.700;9.210;2022-08-19T06:48:43;23.00;56.90
32139;DHT22;18644;48.700;9.210;2022-08-19T06:51:10;23.00;57.00
32139;DHT22;18644;48.700;9.210;2022-08-19T06:53:37;23.00;56.90
32139;DHT22;18644;48.700;9.210;2022-08-19T06:56:06;23.00;56.90
32139;DHT22;18644;48.700;9.210;2022-08-19T06:58:33;22.90;57.00
32139;DHT22;18644;48.700;9.210;2022-08-19T07:01:00;22.90;57.00
32139;DHT22;18644;48.700;9.210;2022-08-19T07:03:30;22.90;57.00
32139;DHT22;18644;48.700;9.210;2022-08-19T07:06:02;22.90;57.10
32139;DHT22;18644;48.700;9.210;2022-08-19T07:08:30;22.90;57.20
32139;DHT22;18644;48.700;9.210;2022-08-19T07:10:57;22.90;57.10
32139;DHT22;18644;48.700;9.210;2022-08-19T07:13:25;22.90;57.10
32139;DHT22;18644;48.700;9.210;2022-08-19T07:15:54;22.90;57.20
32139;DHT22;18644;48.700;9.210;2022-08-19T07:18:21;22.90;57.20
32139;DHT22;18644;48.700;9.210;2022-08-19T07:20:48;22.90;57.80
32139;DHT22;18644;48.700;9.210;2022-08-19T07:23:15;22.90;57.30
32139;DHT22;18644;48.700;9.210;2022-08-19T07:25:44;23.00;57.40
32139;DHT22;18644;48.700;9.210;2022-08-19T07:28:11;23.00;57.40
32139;DHT22;18644;48.700;9.210;2022-08-19T07:30:40;22.90;57.40
32139;DHT22;18644;48.700;9.210;2022-08-19T07:33:07;22.90;57.40
32139;DHT22;18644;48.700;9.210;2022-08-19T07:35:33;22.90;57.40
32139;DHT22;18644;48.700;9.210;2022-08-19T07:38:00;22.90;57.40
32139;DHT22;18644;48.700;9.210;2022-08-19T07:40:29;23.00;57.40
32139;DHT22;18644;48.700;9.210;2022-08-19T07:42:57;22.90;57.40
32139;DHT22;18644;48.700;9.210;2022-08-19T07:45:24;23.00;57.50
32139;DHT22;18644;48.700;9.210;2022-08-19T07:47:52;22.90;57.50
32139;DHT22;18644;48.700;9.210;2022-08-19T07:50:20;22.90;57.70
32139;DHT22;18644;48.700;9.210;2022-08-19T07:52:48;22.90;57.70
32139;DHT22;18644;48.700;9.210;2022-08-19T07:55:18;22.90;57.70
32139;DHT22;18644;48.700;9.210;2022-08-19T07:57:46;22.90;57.80
32139;DHT22;18644;48.700;9.210;2022-08-19T08:00:14;22.90;57.90
32139;DHT22;18644;48.700;9.210;2022-08-19T08:02:41;22.90;58.00
32139;DHT22;18644;48.700;9.210;2022-08-19T08:05:10;22.90;58.20
32139;DHT22;18644;48.700;9.210;2022-08-19T08:07:55;22.80;58.30
32139;DHT22;18644;48.700;9.210;2022-08-19T08:10:40;22.80;58.30
32139;DHT22;18644;48.700;9.210;2022-08-19T08:13:07;22.80;58.40
32139;DHT22;18644;48.700;9.210;2022-08-19T08:15:35;22.70;58.60
32139;DHT22;18644;48.700;9.210;2022-08-19T08:18:03;22.70;58.70
32139;DHT22;18644;48.700;9.210;2022-08-19T08:20:32;22.60;58.80
32139;DHT22;18644;48.700;9.210;2022-08-19T08:22:59;22.60;59.00
32139;DHT22;18644;48.700;9.210;2022-08-19T08:25:44;22.60;59.00
32139;DHT22;18644;48.700;9.210;2022-08-19T08:28:11;22.50;59.00
32139;DHT22;18644;48.700;9.210;2022-08-19T08:30:37;22.50;59.50
32139;DHT22;18644;48.700;9.210;2022-08-19T08:33:07;22.50;59.40
32139;DHT22;18644;48.700;9.210;2022-08-19T08:35:35;22.50;59.60
32139;DHT22;18644;48.700;9.210;2022-08-19T08:38:03;22.50;59.80
32139;DHT22;18644;48.700;9.210;2022-08-19T08:40:38;22.50;60.00
32139;DHT22;18644;48.700;9.210;2022-08-19T08:43:13;22.50;60.40
32139;DHT22;18644;48.700;9.210;2022-08-19T08:45:53;22.50;60.20
32139;DHT22;18644;48.700;9.210;2022-08-19T08:48:27;22.50;60.00
32139;DHT22;18644;48.700;9.210;2022-08-19T08:51:02;22.50;60.10
32139;DHT22;18644;48.700;9.210;2022-08-19T08:53:30;22.50;60.30
32139;DHT22;18644;48.700;9.210;2022-08-19T08:55:58;22.50;60.70
32139;DHT22;18644;48.700;9.210;2022-08-19T08:58:39;22.50;60.30
32139;DHT22;18644;48.700;9.210;2022-08-19T09:01:12;22.50;60.60
32139;DHT22;18644;48.700;9.210;2022-08-19T09:03:41;22.60;60.40
32139;DHT22;18644;48.700;9.210;2022-08-19T09:06:17;22.60;60.60
32139;DHT22;18644;48.700;9.210;2022-08-19T09:08:52;22.60;60.60
32139;DHT22;18644;48.700;9.210;2022-08-19T09:11:35;22.60;60.70
32139;DHT22;18644;48.700;9.210;2022-08-19T09:14:18;22.70;61.20
32139;DHT22;18644;48.700;9.210;2022-08-19T09:16:48;22.70;61.30
32139;DHT22;18644;48.700;9.210;2022-08-19T09:19:17;22.80;61.00
32139;DHT22;18644;48.700;9.210;2022-08-19T09:21:45;22.80;61.10
32139;DHT22;18644;48.700;9.210;2022-08-19T09:24:13;22.80;61.00
32139;DHT22;18644;48.700;9.210;2022-08-19T09:26:40;22.90;60.90
32139;DHT22;18644;48.700;9.210;2022-08-19T09:29:09;22.90;60.80
32139;DHT22;18644;48.700;9.210;2022-08-19T09:31:36;22.90;60.80
32139;DHT22;18644;48.700;9.210;2022-08-19T09:34:03;23.00;60.80
32139;DHT22;18644;48.700;9.210;2022-08-19T09:36:31;23.00;60.90
32139;DHT22;18644;48.700;9.210;2022-08-19T09:39:03;23.00;60.80
32139;DHT22;18644;48.700;9.210;2022-08-19T09:41:30;23.00;60.70
32139;DHT22;18644;48.700;9.210;2022-08-19T09:43:58;23.00;60.70
32139;DHT22;18644;48.700;9.210;2022-08-19T09:46:27;23.00;60.70
32139;DHT22;18644;48.700;9.210;2022-08-19T09:48:59;23.00;60.70
32139;DHT22;18644;48.700;9.210;2022-08-19T09:51:27;23.10;60.90
32139;DHT22;18644;48.700;9.210;2022-08-19T09:53:59;23.10;60.70
32139;DHT22;18644;48.700;9.210;2022-08-19T09:56:29;23.10;60.90
32139;DHT22;18644;48.700;9.210;2022-08-19T09:58:58;23.10;60.50
32139;DHT22;18644;48.700;9.210;2022-08-19T10:01:26;23.10;60.60
32139;DHT22;18644;48.700;9.210;2022-08-19T10:03:56;23.10;60.70
32139;DHT22;18644;48.700;9.210;2022-08-19T10:06:27;23.10;60.90
32139;DHT22;18644;48.700;9.210;2022-08-19T10:08:58;23.10;60.90
32139;DHT22;18644;48.700;9.210;2022-08-19T10:11:26;23.10;60.90
32139;DHT22;18644;48.700;9.210;2022-08-19T10:13:54;23.10;61.30
32139;DHT22;18644;48.700;9.210;2022-08-19T10:16:23;23.20;61.40
32139;DHT22;18644;48.700;9.210;2022-08-19T10:18:51;23.20;61.50
32139;DHT22;18644;48.700;9.210;2022-08-19T10:21:20;23.20;61.50
32139;DHT22;18644;48.700;9.210;2022-08-19T10:23:51;23.20;61.60
32139;DHT22;18644;48.700;9.210;2022-08-19T10:26:23;23.30;61.60
32139;DHT22;18644;48.700;9.210;2022-08-19T10:28:53;23.30;61.60
32139;DHT22;18644;48.700;9.210;2022-08-19T10:31:22;23.30;61.70
32139;DHT22;18644;48.700;9.210;2022-08-19T10:33:51;23.30;62.00
32139;DHT22;18644;48.700;9.210;2022-08-19T10:36:24;23.40;62.00
32139;DHT22;18644;48.700;9.210;2022-08-19T10:38:54;23.40;61.80
32139;DHT22;18644;48.700;9.210;2022-08-19T10:41:23;23.50;61.90
32139;DHT22;18644;48.700;9.210;2022-08-19T10:43:55;23.50;61.90
32139;DHT22;18644;48.700;9.210;2022-08-19T10:46:26;23.50;62.50
32139;DHT22;18644;48.700;9.210;2022-08-19T10:48:54;23.60;63.90
32139;DHT22;18644;48.700;9.210;2022-08-19T10:51:21;23.70;63.50
32139;DHT22;18644;48.700;9.210;2022-08-19T10:54:06;23.80;63.90
32139;DHT22;18644;48.700;9.210;2022-08-19T10:56:34;23.90;63.80
32139;DHT22;18644;48.700;9.210;2022-08-19T10:59:21;24.00;63.70
32139;DHT22;18644;48.700;9.210;2022-08-19T11:01:50;24.20;63.40
32139;DHT22;18644;48.700;9.210;2022-08-19T11:04:19;24.30;63.40
32139;DHT22;18644;48.700;9.210;2022-08-19T11:06:47;24.30;63.10
32139;DHT22;18644;48.700;9.210;2022-08-19T11:09:16;24.40;63.00
32139;DHT22;18644;48.700;9.210;2022-08-19T11:11:46;24.50;62.60
32139;DHT22;18644;48.700;9.210;2022-08-19T11:14:15;24.50;62.10
32139;DHT22;18644;48.700;9.210;2022-08-19T11:16:43;24.60;61.70
32139;DHT22;18644;48.700;9.210;2022-08-19T11:19:11;24.60;61.20
32139;DHT22;18644;48.700;9.210;2022-08-19T11:21:41;24.60;61.00
32139;DHT22;18644;48.700;9.210;2022-08-19T11:24:12;24.60;60.80
32139;DHT22;18644;48.700;9.210;2022-08-19T11:26:42;24.60;60.80
32139;DHT22;18644;48.700;9.210;2022-08-19T11:29:12;24.60;60.40
32139;DHT22;18644;48.700;9.210;2022-08-19T11:31:42;24.60;60.10
32139;DHT22;18644;48.700;9.210;2022-08-19T11:34:12;24.50;59.80
32139;DHT22;18644;48.700;9.210;2022-08-19T11:36:41;24.50;59.60
32139;DHT22;18644;48.700;9.210;2022-08-19T11:39:11;24.40;59.90
32139;DHT22;18644;48.700;9.210;2022-08-19T11:41:39;24.40;60.50
32139;DHT22;18644;48.700;9.210;2022-08-19T11:44:07;24.40;60.90
32139;DHT22;18644;48.700;9.210;2022-08-19T11:46:36;24.40;61.10
32139;DHT22;18644;48.700;9.210;2022-08-19T11:49:05;24.40;61.30
32139;DHT22;18644;48.700;9.210;2022-08-19T11:51:34;24.40;61.50
32139;DHT22;18644;48.700;9.210;2022-08-19T11:54:03;24.40;61.50
32139;DHT22;18644;48.700;9.210;2022-08-19T11:56:31;24.40;61.70
32139;DHT22;18644;48.700;9.210;2022-08-19T11:58:58;24.40;61.70
32139;DHT22;18644;48.700;9.210;2022-08-19T12:01:27;24.40;61.80
32139;DHT22;18644;48.700;9.210;2022-08-19T12:03:56;24.50;62.20
32139;DHT22;18644;48.700;9.210;2022-08-19T12:06:27;24.50;62.60
32139;DHT22;18644;48.700;9.210;2022-08-19T12:08:58;24.50;62.80
32139;DHT22;18644;48.700;9.210;2022-08-19T12:11:27;24.60;63.10
32139;DHT22;18644;48.700;9.210;2022-08-19T12:13:55;24.70;63.20
32139;DHT22;18644;48.700;9.210;2022-08-19T12:16:25;24.80;63.40
32139;DHT22;18644;48.700;9.210;2022-08-19T12:18:55;24.90;63.50
32139;DHT22;18644;48.700;9.210;2022-08-19T12:21:25;24.90;63.40
32139;DHT22;18644;48.700;9.210;2022-08-19T12:23:55;25.00;63.20
32139;DHT22;18644;48.700;9.210;2022-08-19T12:26:23;25.10;63.10
32139;DHT22;18644;48.700;9.210;2022-08-19T12:28:51;25.10;62.80
32139;DHT22;18644;48.700;9.210;2022-08-19T12:31:18;25.20;62.70
32139;DHT22;18644;48.700;9.210;2022-08-19T12:33:46;25.20;62.40
32139;DHT22;18644;48.700;9.210;2022-08-19T12:36:15;25.20;62.00
32139;DHT22;18644;48.700;9.210;2022-08-19T12:38:43;25.20;61.90
32139;DHT22;18644;48.700;9.210;2022-08-19T12:41:12;25.10;61.80
32139;DHT22;18644;48.700;9.210;2022-08-19T12:43:40;25.10;61.90
32139;DHT22;18644;48.700;9.210;2022-08-19T12:46:08;25.10;62.10
32139;DHT22;18644;48.700;9.210;2022-08-19T12:48:35;25.10;61.90
32139;DHT22;18644;48.700;9.210;2022-08-19T12:51:07;25.10;61.70
32139;DHT22;18644;48.700;9.210;2022-08-19T12:53:36;25.00;61.50
32139;DHT22;18644;48.700;9.210;2022-08-19T12:56:04;25.00;61.50
32139;DHT22;18644;48.700;9.210;2022-08-19T12:58:31;25.00;61.50
32139;DHT22;18644;48.700;9.210;2022-08-19T13:00:59;24.90;61.70
32139;DHT22;18644;48.700;9.210;2022-08-19T13:03:26;24.90;61.80
32139;DHT22;18644;48.700;9.210;2022-08-19T13:05:55;24.80;62.60
32139;DHT22;18644;48.700;9.210;2022-08-19T13:08:23;24.80;61.80
32139;DHT22;18644;48.700;9.210;2022-08-19T13:10:51;24.80;61.80
32139;DHT22;18644;48.700;9.210;2022-08-19T13:13:19;24.70;61.90
32139;DHT22;18644;48.700;9.210;2022-08-19T13:15:45;24.70;62.00
32139;DHT22;18644;48.700;9.210;2022-08-19T13:18:13;24.60;62.00
32139;DHT22;18644;48.700;9.210;2022-08-19T13:20:40;24.60;62.20
32139;DHT22;18644;48.700;9.210;2022-08-19T13:23:08;24.60;62.40
32139;DHT22;18644;48.700;9.210;2022-08-19T13:25:35;24.60;62.50
32139;DHT22;18644;48.700;9.210;2022-08-19T13:28:03;24.50;62.60
32139;DHT22;18644;48.700;9.210;2022-08-19T13:30:32;24.50;62.70
32139;DHT22;18644;48.700;9.210;2022-08-19T13:33:16;24.50;62.70
32139;DHT22;18644;48.700;9.210;2022-08-19T13:35:46;24.50;62.60
32139;DHT22;18644;48.700;9.210;2022-08-19T13:38:17;24.50;62.60
32139;DHT22;18644;48.700;9.210;2022-08-19T13:40:46;24.50;62.60
32139;DHT22;18644;48.700;9.210;2022-08-19T13:43:16;24.50;62.50
32139;DHT22;18644;48.700;9.210;2022-08-19T13:45:45;24.40;62.30
32139;DHT22;18644;48.700;9.210;2022-08-19T13:48:12;24.40;62.40
32139;DHT22;18644;48.700;9.210;2022-08-19T13:50:40;24.40;62.50
32139;DHT22;18644;48.700;9.210;2022-08-19T13:53:10;24.30;62.60
32139;DHT22;18644;48.700;9.210;2022-08-19T13:55:38;24.30;62.50
32139;DHT22;18644;48.700;9.210;2022-08-19T13:58:06;24.30;62.70
32139;DHT22;18644;48.700;9.210;2022-08-19T14:00:36;24.20;62.80
32139;DHT22;18644;48.700;9.210;2022-08-19T14:03:04;24.20;62.90
32139;DHT22;18644;48.700;9.210;2022-08-19T14:05:32;24.20;62.70
32139;DHT22;18644;48.700;9.210;2022-08-19T14:07:59;24.20;63.20
32139;DHT22;18644;48.700;9.210;2022-08-19T14:10:27;24.10;62.70
32139;DHT22;18644;48.700;9.210;2022-08-19T14:12:57;24.10;62.60
32139;DHT22;18644;48.700;9.210;2022-08-19T14:15:26;24.10;62.70
32139;DHT22;18644;48.700;9.210;2022-08-19T14:17:55;24.00;62.70
32139;DHT22;18644;48.700;9.210;2022-08-19T14:20:22;24.00;62.90
32139;DHT22;18644;48.700;9.210;2022-08-19T14:22:50;23.90;62.90
32139;DHT22;18644;48.700;9.210;2022-08-19T14:25:19;23.90;63.10
32139;DHT22;18644;48.700;9.210;2022-08-19T14:27:47;23.90;63.20
32139;DHT22;18644;48.700;9.210;2022-08-19T14:30:24;23.90;63.10
32139;DHT22;18644;48.700;9.210;2022-08-19T14:32:55;23.90;63.10
32139;DHT22;18644;48.700;9.210;2022-08-19T14:35:24;23.90;63.30
32139;DHT22;18644;48.700;9.210;2022-08-19T14:37:52;23.90;63.40
32139;DHT22;18644;48.700;9.210;2022-08-19T14:40:22;23.90;63.40
32139;DHT22;18644;48.700;9.210;2022-08-19T14:42:51;23.90;63.40
32139;DHT22;18644;48.700;9.210;2022-08-19T14:45:21;23.90;63.50
32139;DHT22;18644;48.700;9.210;2022-08-19T14:47:48;23.90;63.50
32139;DHT22;18644;48.700;9.210;2022-08-19T14:50:16;23.90;63.30
32139;DHT22;18644;48.700;9.210;2022-08-19T14:52:43;23.90;63.40
32139;DHT22;18644;48.700;9.210;2022-08-19T14:55:10;24.00;63.60
32139;DHT22;18644;48.700;9.210;2022-08-19T14:57:37;24.00;63.50
32139;DHT22;18644;48.700;9.210;2022-08-19T15:00:06;24.10;63.80
32139;DHT22;18644;48.700;9.210;2022-08-19T15:02:37;24.10;63.90
32139;DHT22;18644;48.700;9.210;2022-08-19T15:05:04;24.10;63.80
32139;DHT22;18644;48.700;9.210;2022-08-19T15:07:33;24.20;63.70
32139;DHT22;18644;48.700;9.210;2022-08-19T15:10:00;24.20;63.50
32139;DHT22;18644;48.700;9.210;2022-08-19T15:12:27;24.30;63.30
32139;DHT22;18644;48.700;9.210;2022-08-19T15:14:53;24.30;63.30
32139;DHT22;18644;48.700;9.210;2022-08-19T15:17:20;24.30;63.10
32139;DHT22;18644;48.700;9.210;2022-08-19T15:19:47;24.30;63.00
32139;DHT22;18644;48.700;9.210;2022-08-19T15:22:14;24.40;63.00
32139;DHT22;18644;48.700;9.210;2022-08-19T15:24:42;24.40;63.00
32139;DHT22;18644;48.700;9.210;2022-08-19T15:27:11;24.40;63.10
32139;DHT22;18644;48.700;9.210;2022-08-19T15:29:38;24.50;63.30
32139;DHT22;18644;48.700;9.210;2022-08-19T15:32:06;24.50;63.50
32139;DHT22;18644;48.700;9.210;2022-08-19T15:34:33;24.60;63.70
32139;DHT22;18644;48.700;9.210;2022-08-19T15:37:00;24.70;63.90
32139;DHT22;18644;48.700;9.210;2022-08-19T15:39:30;24.80;63.90
32139;DHT22;18644;48.700;9.210;2022-08-19T15:41:58;24.80;63.70